createdAt,value
2019-04-27T00:01:17.762Z,65.83
2019-04-27T00:04:04.970Z,75.20
2019-04-27T00:06:46.420Z,75.37
2019-04-27T00:09:33.975Z,69.73
2019-04-27T00:12:05.697Z,83.90
2019-04-27T00:14:35.043Z,83.03
2019-04-27T00:17:14.506Z,93.17
2019-04-27T00:19:45.025Z,87.57
2019-04-27T00:22:15.536Z,93.37
2019-04-27T00:24:44.461Z,90.63
2019-04-27T00:27:13.473Z,98.80
2019-04-27T00:29:43.173Z,106.40
2019-04-27T00:32:13.208Z,102.00
2019-04-27T00:34:43.115Z,111.00
2019-04-27T00:37:13.881Z,100.83
2019-04-27T00:39:53.332Z,104.73
2019-04-27T00:42:23.189Z,106.70
2019-04-27T00:44:52.165Z,108.03
2019-04-27T00:47:21.107Z,103.67
2019-04-27T00:49:50.037Z,101.50
2019-04-27T00:52:18.987Z,112.80
2019-04-27T00:54:47.885Z,112.40
2019-04-27T00:57:27.391Z,110.90
2019-04-27T00:59:57.884Z,105.70
2019-04-27T01:02:35.509Z,94.63
2019-04-27T01:05:07.175Z,97.23
2019-04-27T01:07:36.146Z,104.37
2019-04-27T01:10:07.152Z,98.43
2019-04-27T01:12:36.121Z,107.00
2019-04-27T01:15:06.427Z,107.90
2019-04-27T01:17:35.392Z,107.10
2019-04-27T01:20:05.095Z,111.07
2019-04-27T01:22:34.059Z,101.87
2019-04-27T01:25:03.262Z,91.53
2019-04-27T01:27:36.584Z,107.37
2019-04-27T01:30:09.442Z,96.13
2019-04-27T01:32:39.224Z,88.93
2019-04-27T01:35:08.682Z,100.30
2019-04-27T01:37:38.693Z,83.80
2019-04-27T01:40:09.640Z,93.20
2019-04-27T01:42:39.503Z,86.53
2019-04-27T01:45:08.658Z,83.23
2019-04-27T01:47:39.082Z,84.93
2019-04-27T01:50:08.797Z,85.93
2019-04-27T01:52:38.537Z,84.80
2019-04-27T01:55:08.731Z,94.73
2019-04-27T01:57:38.651Z,84.50
2019-04-27T02:00:24.310Z,80.23
2019-04-27T02:02:54.823Z,91.60
2019-04-27T02:05:31.061Z,83.73
2019-04-27T02:08:00.074Z,91.93
2019-04-27T02:10:29.362Z,87.23
2019-04-27T02:12:58.720Z,85.30
2019-04-27T02:15:29.277Z,89.07
2019-04-27T02:17:59.639Z,79.07
2019-04-27T02:20:30.091Z,79.37
2019-04-27T02:22:59.262Z,84.20
2019-04-27T02:25:29.530Z,80.10
2019-04-27T02:28:03.014Z,79.87
2019-04-27T02:30:45.284Z,75.80
2019-04-27T02:33:16.307Z,88.27
2019-04-27T02:35:45.224Z,80.40
2019-04-27T02:38:14.164Z,75.73
2019-04-27T02:40:55.052Z,83.03
2019-04-27T02:43:29.644Z,81.83
2019-04-27T02:46:00.419Z,76.63
2019-04-27T02:48:29.883Z,70.33
2019-04-27T02:51:10.026Z,79.30
2019-04-27T02:53:52.664Z,75.90
2019-04-27T02:56:21.557Z,72.03
2019-04-27T02:58:50.497Z,75.57
2019-04-27T03:01:20.251Z,69.70
2019-04-27T03:03:50.266Z,74.07
2019-04-27T03:06:19.973Z,75.07
2019-04-27T03:08:52.900Z,69.13
2019-04-27T03:11:20.521Z,70.90
2019-04-27T03:14:15.097Z,65.67
2019-04-27T03:16:55.121Z,63.27
2019-04-27T03:19:42.141Z,67.57
2019-04-27T03:22:24.710Z,68.37
2019-04-27T03:25:04.024Z,61.00
2019-04-27T03:27:40.644Z,64.17
2019-04-27T03:30:12.795Z,59.03
2019-04-27T03:32:43.383Z,56.13
2019-04-27T03:35:13.517Z,59.73
2019-04-27T03:37:42.896Z,56.73
2019-04-27T03:40:12.567Z,56.23
2019-04-27T03:42:43.051Z,58.73
2019-04-27T03:45:12.527Z,51.47
2019-04-27T03:47:41.517Z,54.77
2019-04-27T03:50:12.633Z,55.77
2019-04-27T03:52:43.122Z,52.27
2019-04-27T03:55:13.659Z,55.17
2019-04-27T03:58:00.082Z,50.70
2019-04-27T04:00:31.404Z,50.00
2019-04-27T04:03:00.655Z,56.17
2019-04-27T04:05:30.175Z,48.37
2019-04-27T04:08:00.403Z,53.33
2019-04-27T04:10:31.277Z,53.03
2019-04-27T04:13:04.494Z,54.30
2019-04-27T04:15:35.003Z,51.10
2019-04-27T04:18:03.900Z,50.90
2019-04-27T04:20:32.807Z,51.03
2019-04-27T04:23:03.422Z,55.57
2019-04-27T04:25:33.121Z,51.07
2019-04-27T04:28:02.502Z,51.33
2019-04-27T04:30:31.416Z,50.60
2019-04-27T04:33:00.358Z,50.63
2019-04-27T04:35:32.463Z,62.63
2019-04-27T04:38:00.328Z,56.50
2019-04-27T04:40:33.892Z,53.90
2019-04-27T04:43:07.328Z,51.87
2019-04-27T04:45:56.314Z,55.77
2019-04-27T04:48:25.223Z,58.60
2019-04-27T04:50:54.120Z,58.13
2019-04-27T04:53:23.098Z,58.73
2019-04-27T04:55:52.010Z,54.50
2019-04-27T04:58:21.242Z,58.57
2019-04-27T05:00:50.441Z,56.57
2019-04-27T05:03:21.842Z,57.57
2019-04-27T05:05:50.238Z,63.03
2019-04-27T05:08:19.748Z,65.43
2019-04-27T05:10:49.674Z,62.87
2019-04-27T05:13:19.342Z,56.90
2019-04-27T05:15:48.825Z,54.20
2019-04-27T05:18:19.211Z,62.47
2019-04-27T05:20:52.544Z,55.00
2019-04-27T05:23:21.491Z,62.67
2019-04-27T05:25:50.450Z,65.87
2019-04-27T05:28:19.423Z,53.13
2019-04-27T05:30:48.944Z,58.83
2019-04-27T05:33:18.774Z,66.20
2019-04-27T05:35:49.111Z,64.23
2019-04-27T05:38:19.262Z,60.07
2019-04-27T05:40:49.987Z,61.33
2019-04-27T05:43:20.780Z,58.30
2019-04-27T05:46:06.386Z,58.27
2019-04-27T05:48:38.809Z,54.27
2019-04-27T05:51:09.069Z,55.57
2019-04-27T05:53:39.542Z,58.67
2019-04-27T05:56:09.399Z,53.97
2019-04-27T05:58:39.199Z,59.33
2019-04-27T06:01:10.979Z,50.33
2019-04-27T06:03:39.728Z,52.40
2019-04-27T06:06:09.695Z,53.43
2019-04-27T06:08:39.273Z,49.10
2019-04-27T06:11:09.413Z,49.63
2019-04-27T06:13:39.183Z,43.40
2019-04-27T06:16:09.447Z,46.90
2019-04-27T06:18:39.170Z,51.43
2019-04-27T06:21:09.742Z,49.70
2019-04-27T06:23:39.140Z,49.87
2019-04-27T06:26:09.207Z,44.23
2019-04-27T06:28:39.787Z,52.43
2019-04-27T06:31:08.967Z,45.60
2019-04-27T06:33:39.176Z,45.80
2019-04-27T06:36:09.999Z,49.57
2019-04-27T06:38:39.376Z,46.93
2019-04-27T06:41:10.041Z,46.27
2019-04-27T06:43:40.621Z,48.23
2019-04-27T06:46:09.820Z,41.50
2019-04-27T06:48:39.484Z,41.50
2019-04-27T06:51:09.695Z,40.83
2019-04-27T06:53:39.457Z,37.20
2019-04-27T06:56:09.032Z,36.53
2019-04-27T06:58:40.470Z,33.33
2019-04-27T07:01:10.771Z,35.40
2019-04-27T07:03:39.604Z,41.23
2019-04-27T07:06:08.920Z,38.83
2019-04-27T07:08:40.363Z,38.17
2019-04-27T07:11:11.484Z,41.60
2019-04-27T07:13:41.707Z,41.00
2019-04-27T07:16:10.657Z,43.03
2019-04-27T07:18:40.593Z,40.37
2019-04-27T07:21:18.785Z,37.40
2019-04-27T07:23:59.311Z,42.83
2019-04-27T07:26:30.307Z,37.43
2019-04-27T07:28:59.843Z,35.40
2019-04-27T07:31:31.766Z,38.93
2019-04-27T07:34:00.106Z,39.17
2019-04-27T07:36:29.137Z,36.97
2019-04-27T07:38:59.629Z,33.37
2019-04-27T07:41:29.164Z,32.00
2019-04-27T07:44:05.662Z,34.87
2019-04-27T07:46:34.579Z,38.70
2019-04-27T07:49:03.562Z,30.17
2019-04-27T07:51:34.368Z,30.90
2019-04-27T07:54:03.134Z,31.90
2019-04-27T07:56:32.077Z,29.53
2019-04-27T07:59:01.041Z,25.50
2019-04-27T08:01:30.042Z,23.73
2019-04-27T08:03:59.159Z,20.90
2019-04-27T08:06:28.934Z,26.63
2019-04-27T08:08:59.327Z,25.87
2019-04-27T08:11:29.265Z,25.80
2019-04-27T08:13:58.891Z,27.00
2019-04-27T08:16:29.035Z,27.90
2019-04-27T08:19:00.044Z,29.37
2019-04-27T08:21:29.045Z,30.00
2019-04-27T08:23:58.667Z,33.47
2019-04-27T08:26:29.448Z,29.63
2019-04-27T08:29:03.023Z,30.70
2019-04-27T08:31:33.512Z,34.00
2019-04-27T08:34:02.473Z,32.27
2019-04-27T08:36:31.394Z,31.63
2019-04-27T08:39:00.382Z,34.27
2019-04-27T08:41:31.886Z,36.67
2019-04-27T08:44:01.021Z,37.67
2019-04-27T08:46:30.044Z,32.67
2019-04-27T08:48:59.063Z,39.77
2019-04-27T08:51:29.117Z,38.43
2019-04-27T08:53:59.133Z,35.87
2019-04-27T08:56:28.177Z,36.93
2019-04-27T08:58:57.133Z,36.57
2019-04-27T09:01:26.051Z,38.53
2019-04-27T09:03:55.010Z,35.70
2019-04-27T09:06:23.920Z,36.30
2019-04-27T09:08:54.469Z,32.13
2019-04-27T09:11:41.538Z,35.63
2019-04-27T09:14:12.062Z,40.10
2019-04-27T09:16:59.581Z,33.27
2019-04-27T09:19:23.561Z,37.70
2019-04-27T09:22:12.251Z,34.97
2019-04-27T09:24:32.520Z,33.30
2019-04-27T09:27:01.434Z,31.47
2019-04-27T09:29:30.386Z,33.97
2019-04-27T09:31:59.635Z,32.47
2019-04-27T09:34:29.911Z,33.30
2019-04-27T09:36:58.885Z,28.13
2019-04-27T09:39:27.853Z,31.90
2019-04-27T09:41:58.163Z,31.10
2019-04-27T09:44:27.281Z,32.47
2019-04-27T09:46:56.248Z,24.30
2019-04-27T09:49:26.327Z,27.27
2019-04-27T09:51:55.810Z,22.93
2019-04-27T09:54:24.822Z,21.77
2019-04-27T09:56:56.104Z,17.63
2019-04-27T09:59:26.603Z,20.73
2019-04-27T10:01:57.700Z,17.93
2019-04-27T10:04:28.968Z,17.07
2019-04-27T10:07:06.206Z,18.10
2019-04-27T10:09:36.830Z,18.30
2019-04-27T10:12:07.572Z,16.23
2019-04-27T10:14:41.003Z,17.00
2019-04-27T10:17:17.663Z,15.60
2019-04-27T10:19:47.494Z,16.33
2019-04-27T10:22:16.506Z,13.70
2019-04-27T10:24:45.407Z,16.23
2019-04-27T10:27:16.095Z,15.87
2019-04-27T10:29:46.736Z,12.47
2019-04-27T10:32:16.235Z,13.23
2019-04-27T10:34:45.278Z,16.03
2019-04-27T10:37:15.936Z,13.60
2019-04-27T10:39:45.972Z,16.47
2019-04-27T10:42:15.230Z,12.87
2019-04-27T10:44:45.985Z,15.40
2019-04-27T10:47:15.793Z,14.53
2019-04-27T10:49:46.616Z,12.63
2019-04-27T10:52:15.751Z,12.33
2019-04-27T10:54:44.657Z,12.20
2019-04-27T10:57:13.607Z,11.13
2019-04-27T10:59:42.539Z,11.90
2019-04-27T11:02:11.478Z,9.87
2019-04-27T11:04:46.229Z,14.23
2019-04-27T11:07:16.898Z,10.90
2019-04-27T11:09:45.839Z,12.03
2019-04-27T11:12:15.850Z,9.93
2019-04-27T11:14:44.909Z,12.53
2019-04-27T11:17:13.990Z,10.73
2019-04-27T11:19:42.916Z,11.57
2019-04-27T11:22:11.928Z,7.90
2019-04-27T11:24:40.875Z,7.00
2019-04-27T11:27:09.774Z,7.30
2019-04-27T11:29:38.733Z,8.90
2019-04-27T11:32:07.847Z,7.60
2019-04-27T11:34:55.867Z,8.30
2019-04-27T11:37:26.471Z,8.43
2019-04-27T11:39:56.030Z,7.47
2019-04-27T11:42:25.183Z,7.13
2019-04-27T11:44:57.940Z,8.10
2019-04-27T11:47:24.958Z,8.53
2019-04-27T11:49:54.440Z,9.03
2019-04-27T11:52:24.011Z,8.27
2019-04-27T11:54:53.026Z,9.17
2019-04-27T11:57:22.335Z,12.00
2019-04-27T11:59:52.641Z,8.77
2019-04-27T12:02:21.718Z,12.57
2019-04-27T12:04:51.337Z,14.60
2019-04-27T12:07:20.394Z,10.83
2019-04-27T12:09:49.444Z,10.60
2019-04-27T12:12:21.706Z,9.07
2019-04-27T12:14:49.149Z,8.10
2019-04-27T12:17:19.224Z,7.73
2019-04-27T12:19:48.435Z,8.03
2019-04-27T12:22:17.360Z,8.23
2019-04-27T12:24:46.300Z,8.90
2019-04-27T12:27:16.780Z,6.30
2019-04-27T12:30:06.158Z,10.03
2019-04-27T12:32:35.983Z,5.50
2019-04-27T12:35:06.744Z,6.43
2019-04-27T12:37:35.826Z,7.67
2019-04-27T12:40:07.205Z,7.87
2019-04-27T12:42:36.429Z,6.53
2019-04-27T12:45:07.275Z,7.17
2019-04-27T12:47:36.548Z,5.60
2019-04-27T12:50:10.572Z,5.17
2019-04-27T12:52:40.480Z,7.07
2019-04-27T12:55:13.460Z,7.67
2019-04-27T12:57:43.950Z,6.23
2019-04-27T13:00:17.955Z,5.23
2019-04-27T13:02:47.282Z,5.80
2019-04-27T13:05:16.224Z,4.70
2019-04-27T13:07:45.127Z,5.03
2019-04-27T13:10:15.936Z,5.53
2019-04-27T13:12:46.084Z,4.07
2019-04-27T13:15:15.569Z,5.77
2019-04-27T13:17:44.481Z,6.80
2019-04-27T13:20:13.824Z,5.33
2019-04-27T13:22:42.751Z,6.63
2019-04-27T13:25:11.736Z,5.90
2019-04-27T13:27:40.688Z,5.87
2019-04-27T13:30:10.807Z,6.07
2019-04-27T13:32:39.749Z,6.83
2019-04-27T13:35:11.269Z,5.90
2019-04-27T13:37:41.346Z,6.70
2019-04-27T13:40:11.752Z,5.63
2019-04-27T13:42:42.327Z,5.97
2019-04-27T13:45:12.810Z,6.27
2019-04-27T13:47:43.321Z,5.97
2019-04-27T13:50:16.753Z,7.03
2019-04-27T13:52:46.696Z,5.33
2019-04-27T13:55:16.015Z,4.83
2019-04-27T13:57:50.365Z,8.17
2019-04-27T14:00:15.993Z,5.00
2019-04-27T14:02:45.334Z,5.17
2019-04-27T14:05:14.222Z,5.77
2019-04-27T14:07:43.161Z,6.17
2019-04-27T14:10:12.180Z,5.70
2019-04-27T14:12:41.144Z,6.87
2019-04-27T14:15:10.045Z,4.37
2019-04-27T14:17:39.237Z,7.63
2019-04-27T14:20:09.711Z,8.23
2019-04-27T14:22:38.835Z,7.00
2019-04-27T14:25:08.604Z,6.60
2019-04-27T14:27:40.625Z,7.33
2019-04-27T14:30:11.968Z,4.87
2019-04-27T14:32:42.425Z,7.20
2019-04-27T14:35:11.612Z,4.20
2019-04-27T14:37:40.599Z,5.43
2019-04-27T14:40:09.995Z,5.93
2019-04-27T14:42:39.326Z,5.77
2019-04-27T14:45:09.926Z,4.37
2019-04-27T14:47:39.939Z,7.10
2019-04-27T14:50:09.174Z,6.37
2019-04-27T14:52:39.075Z,7.83
2019-04-27T14:55:08.766Z,7.13
2019-04-27T14:57:39.390Z,8.63
2019-04-27T15:00:10.313Z,11.23
2019-04-27T15:02:39.373Z,12.10
2019-04-27T15:05:08.591Z,8.33
2019-04-27T15:07:37.531Z,7.97
2019-04-27T15:10:07.069Z,9.33
2019-04-27T15:12:35.969Z,9.33
2019-04-27T15:15:07.921Z,9.40
2019-04-27T15:17:37.120Z,7.50
2019-04-27T15:20:27.109Z,12.87
2019-04-27T15:22:57.003Z,6.70
2019-04-27T15:25:25.524Z,11.17
2019-04-27T15:27:58.551Z,6.60
2019-04-27T15:30:29.063Z,5.80
2019-04-27T15:33:00.433Z,5.43
2019-04-27T15:35:35.444Z,5.60
2019-04-27T15:38:22.262Z,5.90
2019-04-27T15:41:08.850Z,8.30
2019-04-27T15:43:39.488Z,4.97
2019-04-27T15:46:08.443Z,7.20
2019-04-27T15:48:38.488Z,7.27
2019-04-27T15:51:14.754Z,6.53
2019-04-27T15:53:50.903Z,7.10
2019-04-27T15:56:21.697Z,8.70
2019-04-27T15:58:50.085Z,6.50
2019-04-27T16:01:19.037Z,6.77
2019-04-27T16:03:48.272Z,8.77
2019-04-27T16:06:19.080Z,7.63
2019-04-27T16:08:49.188Z,6.07
2019-04-27T16:11:19.819Z,5.77
2019-04-27T16:13:48.953Z,7.87
2019-04-27T16:16:19.602Z,5.60
2019-04-27T16:18:49.103Z,6.17
2019-04-27T16:21:20.067Z,3.47
2019-04-27T16:23:48.683Z,6.27
2019-04-27T16:26:18.349Z,2.73
2019-04-27T16:28:53.123Z,4.43
2019-04-27T16:31:18.693Z,5.67
2019-04-27T16:33:49.608Z,5.53
2019-04-27T16:36:19.724Z,4.83
2019-04-27T16:38:56.206Z,5.13
2019-04-27T16:41:25.137Z,5.30
2019-04-27T16:43:54.031Z,5.13
2019-04-27T16:46:22.999Z,5.07
2019-04-27T16:48:53.445Z,3.40
2019-04-27T16:51:22.393Z,4.83
2019-04-27T16:53:54.506Z,6.70
2019-04-27T16:56:24.640Z,4.93
2019-04-27T16:58:56.703Z,3.80
2019-04-27T17:01:28.488Z,4.03
2019-04-27T17:03:58.879Z,5.73
2019-04-27T17:06:29.563Z,5.80
2019-04-27T17:09:05.422Z,3.47
2019-04-27T17:11:29.800Z,4.73
2019-04-27T17:14:00.669Z,5.00
2019-04-27T17:16:49.390Z,4.67
2019-04-27T17:19:19.874Z,5.63
2019-04-27T17:21:48.765Z,4.20
2019-04-27T17:24:19.283Z,5.60
2019-04-27T17:26:48.189Z,4.17
2019-04-27T17:29:20.487Z,5.20
2019-04-27T17:31:55.068Z,6.40
2019-04-27T17:34:25.113Z,5.73
2019-04-27T17:36:54.822Z,3.87
2019-04-27T17:39:23.395Z,4.83
2019-04-27T17:41:53.497Z,5.13
2019-04-27T17:44:23.238Z,4.40
2019-04-27T17:46:52.347Z,4.53
2019-04-27T17:49:23.846Z,4.00
2019-04-27T17:51:52.745Z,4.03
2019-04-27T17:54:21.692Z,2.90
2019-04-27T17:56:52.462Z,2.23
2019-04-27T17:59:21.265Z,2.47
2019-04-27T18:01:53.912Z,3.20
2019-04-27T18:04:20.810Z,2.07
2019-04-27T18:06:49.713Z,6.40
2019-04-27T18:09:19.424Z,3.53
2019-04-27T18:11:50.318Z,3.33
2019-04-27T18:14:19.382Z,4.53
2019-04-27T18:16:48.476Z,3.90
2019-04-27T18:19:19.377Z,3.73
2019-04-27T18:22:00.499Z,5.60
2019-04-27T18:24:29.593Z,5.13
2019-04-27T18:27:18.235Z,3.50
2019-04-27T18:29:48.566Z,2.97
2019-04-27T18:32:17.638Z,3.50
2019-04-27T18:34:49.456Z,6.77
2019-04-27T18:37:24.480Z,2.87
2019-04-27T18:39:50.994Z,5.77
2019-04-27T18:42:29.031Z,2.93
2019-04-27T18:45:05.986Z,6.43
2019-04-27T18:47:31.288Z,4.43
2019-04-27T18:50:13.120Z,6.20
2019-04-27T18:52:35.679Z,4.73
2019-04-27T18:55:16.520Z,4.97
2019-04-27T18:57:45.810Z,5.60
2019-04-27T19:00:16.026Z,6.07
2019-04-27T19:02:45.072Z,8.07
2019-04-27T19:05:14.137Z,7.73
2019-04-27T19:07:43.392Z,7.57
2019-04-27T19:10:13.566Z,6.87
2019-04-27T19:12:52.833Z,6.43
2019-04-27T19:15:22.673Z,4.20
2019-04-27T19:17:51.921Z,6.47
2019-04-27T19:20:20.890Z,8.47
2019-04-27T19:22:49.814Z,5.07
2019-04-27T19:25:20.794Z,5.43
2019-04-27T19:28:11.657Z,8.23
2019-04-27T19:30:49.007Z,8.73
2019-04-27T19:33:18.499Z,9.97
2019-04-27T19:35:48.146Z,10.20
2019-04-27T19:38:18.593Z,6.53
2019-04-27T19:40:48.502Z,7.23
2019-04-27T19:43:19.364Z,6.67
2019-04-27T19:45:49.299Z,7.13
2019-04-27T19:48:19.182Z,9.93
2019-04-27T19:50:50.480Z,10.37
2019-04-27T19:53:22.675Z,8.70
2019-04-27T19:56:04.072Z,8.00
2019-04-27T19:58:38.074Z,13.30
2019-04-27T20:01:25.628Z,11.20
2019-04-27T20:04:01.893Z,12.60
2019-04-27T20:06:31.639Z,14.03
2019-04-27T20:09:08.166Z,14.60
2019-04-27T20:11:39.528Z,11.57
2019-04-27T20:14:11.008Z,15.93
2019-04-27T20:16:41.653Z,15.70
2019-04-27T20:19:13.599Z,13.40
2019-04-27T20:21:44.748Z,13.63
2019-04-27T20:24:14.113Z,14.90
2019-04-27T20:26:44.839Z,18.27
2019-04-27T20:29:14.614Z,12.20
2019-04-27T20:31:44.549Z,15.43
2019-04-27T20:34:14.033Z,20.83
2019-04-27T20:36:45.044Z,15.80
2019-04-27T20:39:15.540Z,13.10
2019-04-27T20:41:45.142Z,16.13
2019-04-27T20:44:14.505Z,16.77
2019-04-27T20:46:43.865Z,15.43
2019-04-27T20:49:17.219Z,15.80
2019-04-27T20:51:53.064Z,15.80
2019-04-27T20:54:27.752Z,14.70
2019-04-27T20:56:57.449Z,17.13
2019-04-27T20:59:27.393Z,15.63
2019-04-27T21:01:58.177Z,13.23
2019-04-27T21:04:30.918Z,14.97
2019-04-27T21:07:01.860Z,14.70
2019-04-27T21:09:32.586Z,19.07
2019-04-27T21:12:03.531Z,15.83
2019-04-27T21:14:32.531Z,15.17
2019-04-27T21:17:01.780Z,15.37
2019-04-27T21:19:31.287Z,16.43
2019-04-27T21:22:01.339Z,13.17
2019-04-27T21:24:31.177Z,12.67
2019-04-27T21:27:01.145Z,15.67
2019-04-27T21:29:31.130Z,14.20
2019-04-27T21:32:01.017Z,17.47
2019-04-27T21:34:31.053Z,16.77
2019-04-27T21:37:19.613Z,14.73
2019-04-27T21:39:48.720Z,16.13
2019-04-27T21:42:17.755Z,17.37
2019-04-27T21:44:46.773Z,14.13
2019-04-27T21:47:15.710Z,16.33
2019-04-27T21:49:44.808Z,13.17
2019-04-27T21:52:15.397Z,13.40
2019-04-27T21:54:46.097Z,12.20
2019-04-27T21:57:16.581Z,15.47
2019-04-27T21:59:46.189Z,13.73
2019-04-27T22:02:15.601Z,14.40
2019-04-27T22:04:44.719Z,11.60
2019-04-27T22:07:13.721Z,14.40
2019-04-27T22:09:43.314Z,15.07
2019-04-27T22:12:12.443Z,15.17
2019-04-27T22:14:41.397Z,18.07
2019-04-27T22:17:11.007Z,18.90
2019-04-27T22:19:41.295Z,15.77
2019-04-27T22:22:12.611Z,12.23
2019-04-27T22:24:43.102Z,14.73
2019-04-27T22:27:12.189Z,17.10
2019-04-27T22:29:41.226Z,14.07
2019-04-27T22:32:10.211Z,14.80
2019-04-27T22:34:39.174Z,13.63
2019-04-27T22:37:08.163Z,18.23
2019-04-27T22:39:38.742Z,13.90
2019-04-27T22:42:25.391Z,18.20
2019-04-27T22:44:55.916Z,14.33
2019-04-27T22:47:24.888Z,16.27
2019-04-27T22:49:55.036Z,15.70
2019-04-27T22:52:24.046Z,22.47
2019-04-27T22:54:53.008Z,17.63
2019-04-27T22:57:23.507Z,18.83
2019-04-27T22:59:54.769Z,15.20
2019-04-27T23:02:29.389Z,19.90
2019-04-27T23:05:01.946Z,17.37
2019-04-27T23:07:31.631Z,17.00
2019-04-27T23:10:01.894Z,19.07
2019-04-27T23:12:31.717Z,17.83
2019-04-27T23:15:00.832Z,18.30
2019-04-27T23:17:47.387Z,19.83
2019-04-27T23:20:16.365Z,21.63
2019-04-27T23:22:45.362Z,19.20
2019-04-27T23:25:14.534Z,25.10
2019-04-27T23:27:45.091Z,23.17
2019-04-27T23:30:14.453Z,19.93
2019-04-27T23:32:48.027Z,26.47
2019-04-27T23:35:16.975Z,25.00
2019-04-27T23:37:45.919Z,22.37
2019-04-27T23:40:15.343Z,25.60
2019-04-27T23:42:44.722Z,24.07
2019-04-27T23:45:14.045Z,24.87
2019-04-27T23:47:42.979Z,24.53
2019-04-27T23:50:12.391Z,26.73
2019-04-27T23:52:59.186Z,27.87
2019-04-27T23:55:30.955Z,26.70
2019-04-27T23:58:00.094Z,27.77
